Time;durP1;ratioP1;P1;durP2;ratioP2;P2;SDS_P1;SDS_P2;PMS_P1;PMS_P2;Temp;Humidity;BMP_temperature;BMP_pressure;BME280_temperature;BME280_humidity;BME280_pressure;Samples;Min_cycle;Max_cycle;Signal;HPM_P1;HPM_P2
2022/03/12 00:02:09;;;;;;;2.70;1.50;;;;;;;16.49;25.49;93688.03;4918985;29;20043;-90
2022/03/12 00:04:34;;;;;;;1.80;1.40;;;;;;;16.52;25.83;93689.03;4919072;29;20113;-90
2022/03/12 00:07:00;;;;;;;1.40;1.30;;;;;;;16.48;25.81;93686.53;4934988;29;20035;-90
2022/03/12 00:09:26;;;;;;;1.30;1.13;;;;;;;16.45;25.74;93685.53;4918682;28;20031;-90
2022/03/12 00:11:56;;;;;;;1.05;0.85;;;;;;;16.46;25.75;93678.81;4919208;29;20513;-94
2022/03/12 00:14:21;;;;;;;2.08;1.33;;;;;;;16.44;25.89;93688.78;4918833;28;20235;-91
2022/03/12 00:16:48;;;;;;;1.63;1.00;;;;;;;16.49;25.86;93690.00;4951323;29;20070;-90
2022/03/12 00:19:14;;;;;;;1.65;1.23;;;;;;;16.49;25.74;93687.28;4918590;29;20142;-90
2022/03/12 00:21:41;;;;;;;1.83;1.17;;;;;;;16.52;25.97;93692.50;4919427;29;20054;-90
2022/03/12 00:24:07;;;;;;;1.20;1.10;;;;;;;16.51;25.74;93693.00;4934729;29;20031;-90
2022/03/12 00:26:33;;;;;;;1.40;1.08;;;;;;;16.52;25.71;93706.16;4903258;29;20027;-90
2022/03/12 00:28:59;;;;;;;1.80;1.40;;;;;;;16.50;25.80;93697.69;4918811;29;20042;-90
2022/03/12 00:31:25;;;;;;;1.70;1.25;;;;;;;16.49;25.63;93690.75;4918547;29;20031;-92
2022/03/12 00:33:51;;;;;;;1.10;0.90;;;;;;;16.50;25.93;93689.50;4934942;29;20046;-94
2022/03/12 00:36:17;;;;;;;1.75;1.38;;;;;;;16.45;25.81;93685.53;4918108;29;20036;-90
2022/03/12 00:38:42;;;;;;;1.13;1.00;;;;;;;16.48;25.59;93683.81;4919017;29;20465;-90
2022/03/12 00:41:08;;;;;;;1.75;1.13;;;;;;;16.45;25.92;93682.78;4928833;29;20094;-90
2022/03/12 00:43:33;;;;;;;1.30;1.00;;;;;;;16.46;25.98;93667.91;4904457;28;20035;-90
2022/03/12 00:45:59;;;;;;;1.23;1.00;;;;;;;16.48;25.78;93674.88;4921420;28;20042;-92
2022/03/12 00:48:24;;;;;;;1.73;1.30;;;;;;;16.46;25.86;93678.09;4921150;28;20458;-93
2022/03/12 00:50:50;;;;;;;2.20;1.40;;;;;;;16.49;25.86;93679.84;4937123;28;20091;-93
2022/03/12 00:53:15;;;;;;;1.23;1.13;;;;;;;16.44;25.87;93683.31;4937008;28;20054;-90
2022/03/12 00:55:41;;;;;;;1.45;1.13;;;;;;;16.48;25.72;93672.13;4921270;28;20030;-90
2022/03/12 00:58:07;;;;;;;1.67;1.10;;;;;;;16.48;25.65;93681.06;4921303;28;20035;-90
2022/03/12 01:00:32;;;;;;;2.17;1.15;;;;;;;16.42;25.71;93675.63;4920804;28;20038;-90
2022/03/12 01:02:58;;;;;;;1.98;1.30;;;;;;;16.42;25.80;93681.06;4921827;28;20035;-90
2022/03/12 01:05:35;;;;;;;1.75;1.38;;;;;;;16.45;26.02;93682.78;4920533;28;20043;-90
2022/03/12 01:08:00;;;;;;;1.92;1.50;;;;;;;16.44;25.50;93675.88;4923070;28;20046;-90
2022/03/12 01:10:25;;;;;;;1.48;1.05;;;;;;;16.46;25.99;93681.56;4920466;28;20428;-91
2022/03/12 01:12:51;;;;;;;1.35;1.10;;;;;;;16.44;26.14;93681.34;4920786;28;20110;-90
2022/03/12 01:15:16;;;;;;;1.70;1.20;;;;;;;16.48;25.69;93677.59;4920208;28;20045;-90
2022/03/12 01:17:42;;;;;;;1.52;1.10;;;;;;;16.46;26.14;93673.38;4917960;29;20415;-94
2022/03/12 01:20:08;;;;;;;1.20;0.90;;;;;;;16.47;25.91;93674.13;4933147;28;20130;-90
2022/03/12 01:22:38;;;;;;;1.38;1.13;;;;;;;16.48;25.41;93669.41;4933827;29;20074;-91
2022/03/12 01:25:05;;;;;;;1.35;1.23;;;;;;;16.44;25.92;93672.41;4933498;28;20498;-89
2022/03/12 01:27:30;;;;;;;1.67;1.10;;;;;;;16.45;26.12;93677.34;4918137;29;20043;-90
2022/03/12 01:29:55;;;;;;;0.80;0.70;;;;;;;16.44;26.03;93677.84;4917378;29;20082;-90
2022/03/12 01:32:21;;;;;;;1.45;1.00;;;;;;;16.44;25.78;93677.84;4933256;28;20032;-90
2022/03/12 01:34:47;;;;;;;1.13;1.00;;;;;;;16.41;26.23;93668.66;4922529;29;20490;-90
2022/03/12 01:37:14;;;;;;;1.55;1.15;;;;;;;16.46;26.02;93672.63;4916830;29;20047;-90
2022/03/12 01:39:40;;;;;;;1.20;1.10;;;;;;;16.44;26.04;93659.50;4920879;28;20122;-90
2022/03/12 01:42:07;;;;;;;1.40;0.95;;;;;;;16.44;26.23;93670.41;4920510;28;20043;-91
2022/03/12 01:44:33;;;;;;;1.50;1.00;;;;;;;16.42;26.28;93659.25;4924151;29;20048;-90
2022/03/12 01:46:58;;;;;;;1.10;0.90;;;;;;;16.40;25.68;93667.19;4931629;29;20043;-90
2022/03/12 01:49:24;;;;;;;1.58;1.20;;;;;;;16.48;26.18;93661.22;4932826;29;20036;-90
2022/03/12 01:51:51;;;;;;;2.30;1.23;;;;;;;16.41;26.15;93660.47;4898618;29;20035;-90
2022/03/12 01:54:20;;;;;;;1.70;1.25;;;;;;;16.43;25.83;93668.91;4882966;29;20047;-90
2022/03/12 01:56:45;;;;;;;1.27;0.90;;;;;;;16.46;26.08;93667.16;4930097;29;20499;-90
2022/03/12 01:59:11;;;;;;;1.35;1.00;;;;;;;16.42;25.86;93661.97;4913812;29;20040;-90
2022/03/12 02:01:36;;;;;;;1.10;1.00;;;;;;;16.44;26.09;93654.03;4882731;29;20054;-91
2022/03/12 02:04:03;;;;;;;1.17;0.90;;;;;;;16.44;25.99;93653.31;4913803;29;20040;-89
2022/03/12 02:06:28;;;;;;;1.63;1.27;;;;;;;16.44;26.04;93662.22;4913820;29;20068;-92
2022/03/12 02:08:57;;;;;;;1.00;0.82;;;;;;;16.42;26.19;93656.53;4930038;29;20043;-90
2022/03/12 02:11:29;;;;;;;0.88;0.82;;;;;;;16.43;26.22;93660.75;4912950;29;20521;-90
2022/03/12 02:13:57;;;;;;;1.15;1.05;;;;;;;16.40;26.01;93648.06;4930756;29;20411;-89
2022/03/12 02:16:23;;;;;;;1.30;0.95;;;;;;;16.41;26.21;93652.28;4899704;29;20503;-91
2022/03/12 02:18:48;;;;;;;1.00;0.90;;;;;;;16.43;26.17;93646.34;4933240;29;20063;-90
2022/03/12 02:21:14;;;;;;;1.48;0.90;;;;;;;16.41;26.46;93637.91;4932144;29;20039;-90
2022/03/12 02:23:48;;;;;;;1.02;0.90;;;;;;;16.45;25.81;93635.69;4919229;29;20031;-90
2022/03/12 02:26:13;;;;;;;1.17;0.90;;;;;;;16.42;25.94;93633.94;4936572;29;20035;-90
2022/03/12 02:28:38;;;;;;;1.10;0.90;;;;;;;16.44;25.71;93624.03;4936678;29;20031;-90
2022/03/12 02:31:05;;;;;;;1.00;0.70;;;;;;;16.45;26.16;93632.97;4951915;29;20031;-90
2022/03/12 02:33:30;;;;;;;1.17;0.98;;;;;;;16.42;26.26;93621.03;4936953;29;20403;-90
2022/03/12 02:35:56;;;;;;;1.02;0.90;;;;;;;16.44;26.21;93617.81;4936466;29;20046;-91
2022/03/12 02:38:23;;;;;;;1.77;1.05;;;;;;;16.42;26.22;93621.03;4936516;29;21489;-90
2022/03/12 02:40:48;;;;;;;1.05;0.93;;;;;;;16.42;25.86;93631.97;4912312;29;20073;-91
2022/03/12 02:43:14;;;;;;;1.10;0.80;;;;;;;16.38;26.22;93628.72;4935947;29;20035;-93
2022/03/12 02:45:40;;;;;;;1.27;1.08;;;;;;;16.40;26.10;93628.22;4923239;28;20069;-90
2022/03/12 02:48:08;;;;;;;1.25;1.00;;;;;;;16.37;26.21;93640.88;4939264;28;20039;-92
2022/03/12 02:50:34;;;;;;;1.48;1.00;;;;;;;16.37;26.01;93632.69;4939692;28;20039;-90
2022/03/12 02:52:59;;;;;;;0.95;0.77;;;;;;;16.41;26.23;93630.47;4923975;28;20042;-91
2022/03/12 02:55:25;;;;;;;0.90;0.80;;;;;;;16.40;26.16;93634.44;4955172;28;20038;-91
2022/03/12 02:57:51;;;;;;;1.23;0.88;;;;;;;16.40;26.08;93633.69;4947082;29;20406;-90
2022/03/12 03:00:18;;;;;;;0.80;0.80;;;;;;;16.40;26.39;93625.50;4936418;29;20047;-90
2022/03/12 03:02:47;;;;;;;1.20;0.98;;;;;;;16.37;26.08;93619.03;4919696;29;20041;-91
2022/03/12 03:08:00;;;;;;;1.05;0.93;;;;;;;16.39;26.15;93627.47;4953689;29;20038;-90
2022/03/12 03:10:31;;;;;;;1.25;1.15;;;;;;;16.37;26.05;93621.03;4935529;29;20035;-91
2022/03/12 03:12:58;;;;;;;1.45;1.13;;;;;;;16.41;26.20;93625.00;4936034;29;20049;-91
2022/03/12 03:15:25;;;;;;;1.45;1.10;;;;;;;16.39;25.84;93608.38;4935744;29;20044;-91
2022/03/12 03:17:51;;;;;;;0.90;0.88;;;;;;;16.40;26.08;93612.59;4932584;28;20458;-90
2022/03/12 03:20:16;;;;;;;1.50;1.15;;;;;;;16.41;26.47;93596.97;4938525;28;20054;-90
2022/03/12 03:22:41;;;;;;;1.30;1.00;;;;;;;16.36;26.41;93603.91;4938910;28;20038;-95
2022/03/12 03:25:07;;;;;;;1.35;1.13;;;;;;;16.38;26.08;93604.16;4954532;28;20069;-90
2022/03/12 03:27:32;;;;;;;1.10;0.98;;;;;;;16.38;26.04;93606.91;4938777;28;20265;-90
2022/03/12 03:29:58;;;;;;;0.95;0.73;;;;;;;16.36;25.90;93605.88;4938920;28;20431;-90
2022/03/12 03:32:24;;;;;;;1.27;0.95;;;;;;;16.36;26.18;93611.34;4970333;28;20257;-90
2022/03/12 03:34:49;;;;;;;1.05;0.63;;;;;;;16.42;26.40;93601.19;4937804;28;20035;-90
2022/03/12 03:37:15;;;;;;;0.93;0.80;;;;;;;16.42;25.97;93612.13;4954425;28;20220;-90
2022/03/12 03:39:40;;;;;;;1.40;0.90;;;;;;;16.35;26.38;93610.59;4939062;28;20035;-91
2022/03/12 03:42:06;;;;;;;0.80;0.70;;;;;;;16.37;26.15;93621.03;4953380;28;20494;-93
2022/03/12 03:44:31;;;;;;;1.23;0.90;;;;;;;16.33;26.13;93610.34;4929773;28;20046;-90
2022/03/12 03:46:57;;;;;;;1.13;0.90;;;;;;;16.38;26.44;93609.63;4923159;28;20023;-90
2022/03/12 03:49:24;;;;;;;1.15;0.88;;;;;;;16.36;26.13;93605.88;4938106;28;20035;-90
2022/03/12 03:51:50;;;;;;;1.05;0.93;;;;;;;16.39;26.36;93607.63;4954360;28;20049;-90
2022/03/12 03:54:15;;;;;;;0.77;0.77;;;;;;;16.40;26.11;93609.13;4922097;28;20046;-94
2022/03/12 03:56:41;;;;;;;1.30;0.90;;;;;;;16.37;26.25;93607.38;4922271;28;20043;-92
2022/03/12 03:59:06;;;;;;;0.60;0.60;;;;;;;16.39;25.97;93611.13;4938143;28;20031;-90
2022/03/12 04:01:32;;;;;;;0.80;0.80;;;;;;;16.39;26.37;93610.38;4938642;28;20038;-90
2022/03/12 04:03:58;;;;;;;1.20;0.90;;;;;;;16.35;26.19;93616.06;4938232;28;20039;-92
2022/03/12 04:06:24;;;;;;;1.58;0.88;;;;;;;16.35;26.11;93618.03;4921964;28;20034;-90
2022/03/12 04:08:50;;;;;;;1.23;1.00;;;;;;;16.38;26.01;93609.63;4922854;28;20070;-91
2022/03/12 04:11:17;;;;;;;1.33;1.10;;;;;;;16.37;26.44;93615.56;4921784;28;20065;-92
2022/03/12 04:13:42;;;;;;;1.10;0.77;;;;;;;16.36;26.43;93625.00;4938002;28;20085;-90
2022/03/12 04:16:08;;;;;;;1.30;0.95;;;;;;;16.32;26.38;93614.31;4921894;28;20035;-90
2022/03/12 04:18:35;;;;;;;2.00;1.10;;;;;;;16.34;26.26;93620.03;4921656;28;20400;-91
2022/03/12 04:21:00;;;;;;;1.17;0.90;;;;;;;16.31;26.47;93618.28;4938370;28;20497;-91
2022/03/12 04:23:27;;;;;;;0.88;0.80;;;;;;;16.32;26.50;93617.03;4921346;28;20035;-90
2022/03/12 04:25:53;;;;;;;1.45;0.90;;;;;;;16.34;26.54;93611.09;4922627;28;20186;-94
2022/03/12 04:28:20;;;;;;;1.02;0.80;;;;;;;16.37;26.40;93627.22;4937505;28;20046;-90
2022/03/12 04:30:45;;;;;;;0.95;0.80;;;;;;;16.32;26.49;93624.47;4922190;28;20035;-90
2022/03/12 04:33:11;;;;;;;1.17;0.95;;;;;;;16.33;26.51;93618.53;4936975;28;20082;-90
2022/03/12 04:35:38;;;;;;;1.50;1.17;;;;;;;16.33;26.41;93629.44;4937738;28;20027;-90
2022/03/12 04:38:03;;;;;;;1.35;1.00;;;;;;;16.34;26.44;93625.47;4921850;28;20113;-90
2022/03/12 04:40:29;;;;;;;1.20;1.02;;;;;;;16.37;26.40;93626.47;4918658;29;20454;-90
2022/03/12 04:42:54;;;;;;;0.80;0.80;;;;;;;16.39;26.24;93630.22;4919014;29;20728;-90
2022/03/12 04:45:21;;;;;;;1.00;0.80;;;;;;;16.36;26.43;93630.44;4921756;29;20513;-90
2022/03/12 04:47:48;;;;;;;0.95;0.70;;;;;;;16.36;26.39;93627.72;4933946;29;20039;-90
2022/03/12 04:50:13;;;;;;;1.17;0.90;;;;;;;16.35;26.46;93640.63;4933001;29;20035;-90
2022/03/12 04:52:47;;;;;;;1.70;1.00;;;;;;;16.32;26.71;93638.13;4918006;29;20039;-90
2022/03/12 04:55:17;;;;;;;0.73;0.70;;;;;;;16.30;26.33;93632.41;4933687;29;20403;-91
2022/03/12 04:57:42;;;;;;;1.20;0.90;;;;;;;16.29;26.49;93630.91;4934248;29;20035;-91
2022/03/12 05:00:17;;;;;;;1.92;0.77;;;;;;;16.33;26.71;93634.91;4918130;29;20035;-89
2022/03/12 05:02:42;;;;;;;1.42;0.75;;;;;;;16.34;26.56;93650.03;4934226;29;20503;-90
2022/03/12 05:05:09;;;;;;;0.70;0.70;;;;;;;16.30;26.63;93644.06;4917628;29;20029;-90
2022/03/12 05:07:35;;;;;;;1.02;0.80;;;;;;;16.32;26.77;93638.13;4934274;29;20042;-90
2022/03/12 05:10:01;;;;;;;1.20;1.02;;;;;;;16.35;26.41;93648.06;4933854;29;20036;-94
2022/03/12 05:12:26;;;;;;;1.42;1.13;;;;;;;16.35;26.46;93646.06;4917287;29;20490;-90
2022/03/12 05:14:54;;;;;;;1.38;0.90;;;;;;;16.31;26.33;93647.53;4917681;29;20035;-94
2022/03/12 05:17:26;;;;;;;1.65;1.20;;;;;;;16.31;26.40;93653.00;4930695;29;20036;-91
2022/03/12 05:19:52;;;;;;;0.90;0.80;;;;;;;16.36;26.53;93653.03;4919645;29;20143;-93
2022/03/12 05:22:17;;;;;;;1.98;0.80;;;;;;;16.32;26.45;93652.50;4918009;29;20067;-91
2022/03/12 05:24:43;;;;;;;1.33;0.90;;;;;;;16.34;26.54;93658.22;4918164;29;20042;-91
2022/03/12 05:27:14;;;;;;;0.85;0.82;;;;;;;16.31;26.49;93661.19;4917770;29;20042;-90
2022/03/12 05:29:41;;;;;;;0.90;0.85;;;;;;;16.30;26.80;93660.44;4919433;29;20046;-91
2022/03/12 05:32:08;;;;;;;1.25;1.00;;;;;;;16.32;26.40;93660.69;4901999;29;20040;-91
2022/03/12 05:34:34;;;;;;;1.33;1.23;;;;;;;16.36;26.37;93665.91;4901759;29;20186;-92
2022/03/12 05:37:04;;;;;;;1.42;0.82;;;;;;;16.36;26.48;93668.63;4918568;29;20023;-91
2022/03/12 05:39:29;;;;;;;1.97;1.13;;;;;;;16.38;26.53;93663.44;4920231;28;20043;-91
2022/03/12 05:41:59;;;;;;;1.30;1.10;;;;;;;16.31;26.53;93666.63;4920143;28;20023;-90
2022/03/12 05:44:26;;;;;;;1.42;1.00;;;;;;;16.29;26.54;93664.38;4913160;28;20466;-90
2022/03/12 05:46:52;;;;;;;1.33;0.80;;;;;;;16.31;26.78;93666.63;4936957;28;20035;-91
2022/03/12 05:49:19;;;;;;;1.30;0.98;;;;;;;16.31;26.69;93678.28;4952216;28;20031;-91
2022/03/12 05:51:44;;;;;;;1.00;0.90;;;;;;;16.32;26.69;93668.88;4936705;28;20031;-90
2022/03/12 05:54:10;;;;;;;0.93;0.80;;;;;;;16.34;26.61;93669.13;4951594;28;20023;-90
2022/03/12 05:56:39;;;;;;;1.15;0.90;;;;;;;16.40;26.85;93682.78;4936845;28;20077;-90
2022/03/12 05:59:05;;;;;;;1.05;0.95;;;;;;;16.36;26.71;93672.13;4954913;28;20098;-90
2022/03/12 06:01:30;;;;;;;1.10;0.75;;;;;;;16.42;26.60;93677.59;4940982;28;20042;-91
2022/03/12 06:03:55;;;;;;;1.52;0.90;;;;;;;16.39;26.76;93684.03;4940369;28;20041;-93
2022/03/12 06:06:24;;;;;;;1.05;0.90;;;;;;;16.39;26.88;93678.56;4939770;28;20041;-92
2022/03/12 06:08:49;;;;;;;1.27;0.98;;;;;;;16.44;26.62;93686.03;4941329;28;20049;-90
2022/03/12 06:11:15;;;;;;;3.38;1.13;;;;;;;16.40;26.59;93683.53;4939940;28;20039;-91
2022/03/12 06:13:41;;;;;;;0.95;0.75;;;;;;;16.44;26.81;93692.25;4956969;28;20031;-90
2022/03/12 06:16:08;;;;;;;0.98;0.80;;;;;;;16.48;26.58;93683.81;4940266;28;20118;-91
2022/03/12 06:18:37;;;;;;;0.93;0.85;;;;;;;16.45;26.88;93701.19;4948620;29;20039;-91
2022/03/12 06:21:03;;;;;;;1.17;0.75;;;;;;;16.50;26.56;93703.16;4937075;29;20071;-90
2022/03/12 06:23:29;;;;;;;0.88;0.75;;;;;;;16.49;26.45;93693.47;4937056;29;20058;-91
2022/03/12 06:25:55;;;;;;;1.33;1.08;;;;;;;16.50;26.75;93702.41;4921218;29;20062;-90
2022/03/12 06:28:21;;;;;;;0.75;0.70;;;;;;;16.50;26.89;93708.63;4936190;29;20126;-90
2022/03/12 06:30:47;;;;;;;1.10;1.00;;;;;;;16.51;26.58;93709.38;4920984;29;20043;-91
2022/03/12 06:33:14;;;;;;;0.80;0.80;;;;;;;16.55;26.61;93710.63;4936228;29;20399;-91
2022/03/12 06:35:40;;;;;;;1.40;0.95;;;;;;;16.51;26.37;93703.91;4937131;29;20028;-90
2022/03/12 06:38:07;;;;;;;1.35;1.00;;;;;;;16.57;26.67;93718.31;4920795;29;20150;-91
2022/03/12 06:40:33;;;;;;;0.88;0.80;;;;;;;16.55;26.76;93718.81;4940350;28;20038;-91
2022/03/12 06:42:59;;;;;;;1.00;0.88;;;;;;;16.55;26.73;93718.06;4924019;28;20092;-90
2022/03/12 06:45:25;;;;;;;2.45;0.90;;;;;;;16.56;26.64;93728.50;4926038;29;20513;-90
2022/03/12 06:47:50;;;;;;;1.10;0.80;;;;;;;16.57;26.50;93721.06;4905123;29;20439;-90
2022/03/12 06:50:19;;;;;;;1.10;0.70;;;;;;;16.62;26.40;93737.47;4904274;29;20043;-90
2022/03/12 06:52:48;;;;;;;0.95;0.73;;;;;;;16.63;26.22;93736.25;4904867;29;20036;-91
2022/03/12 06:55:18;;;;;;;0.90;0.70;;;;;;;16.61;26.45;93727.78;4904885;29;20047;-90
2022/03/12 06:57:44;;;;;;;1.10;0.80;;;;;;;16.62;26.30;93731.25;4905790;29;20265;-91
2022/03/12 07:00:15;;;;;;;0.93;0.80;;;;;;;16.66;26.42;93727.09;4904643;29;20050;-90
2022/03/12 07:02:40;;;;;;;;;;;;;;;16.68;26.57;93730.03;4921101;29;20093;-90
2022/03/12 07:05:06;;;;;;;1.20;0.98;;;;;;;16.70;26.45;93733.03;4919519;29;19922;-90
2022/03/12 07:07:32;;;;;;;1.17;0.88;;;;;;;16.72;26.72;93743.44;4905029;29;20031;-90
2022/03/12 07:09:57;;;;;;;1.35;0.70;;;;;;;16.69;26.57;93736.25;4936272;29;20094;-90
2022/03/12 07:12:22;;;;;;;165.20;114.47;;;;;;;16.73;26.84;93737.50;4906608;29;20051;-91
2022/03/12 07:14:48;;;;;;;64.68;40.47;;;;;;;16.76;26.41;93739.25;4917768;29;20546;-91
2022/03/12 07:17:13;;;;;;;191.63;145.43;;;;;;;16.83;26.93;93734.56;4902197;29;20098;-91
2022/03/12 07:19:39;;;;;;;8.18;4.63;;;;;;;16.83;26.26;93726.38;4903273;29;20043;-90
2022/03/12 07:22:04;;;;;;;3.88;3.17;;;;;;;16.86;26.63;93733.59;4936836;29;20443;-89
2022/03/12 07:24:30;;;;;;;4.85;3.30;;;;;;;16.87;26.50;93719.44;4903774;29;20050;-90
2022/03/12 07:26:56;;;;;;;161.65;121.22;;;;;;;16.91;26.46;93730.84;4907834;29;20039;-90
2022/03/12 07:29:21;;;;;;;44.10;31.38;;;;;;;16.89;26.51;93736.06;4924725;29;20062;-90
2022/03/12 07:31:46;;;;;;;26.67;22.10;;;;;;;16.91;26.88;93735.56;4929139;29;20035;-88
2022/03/12 07:34:12;;;;;;;5.68;3.95;;;;;;;16.93;26.37;93738.53;4924062;29;20067;-88
2022/03/12 07:36:37;;;;;;;6.00;4.25;;;;;;;16.93;26.41;93738.53;4922590;29;20032;-91
2022/03/12 07:39:03;;;;;;;213.07;173.85;;;;;;;16.93;26.84;93741.28;4907586;29;20039;-90
2022/03/12 07:41:29;;;;;;;12.32;9.07;;;;;;;16.95;26.21;93750.47;4903008;29;20091;-90
2022/03/12 07:43:55;;;;;;;101.32;40.00;;;;;;;16.97;26.40;93750.72;4909602;28;20516;-89
2022/03/12 07:46:21;;;;;;;10.38;6.32;;;;;;;17.02;26.62;93750.00;4940638;28;20031;-89
2022/03/12 07:48:47;;;;;;;9.07;5.85;;;;;;;17.04;26.53;93752.25;4942927;28;20054;-89
2022/03/12 07:51:13;;;;;;;15.07;13.45;;;;;;;17.05;26.73;93742.81;4922733;28;20127;-89
2022/03/12 07:53:39;;;;;;;119.97;99.13;;;;;;;17.06;26.47;93745.06;4942158;28;20039;-87
2022/03/12 07:56:05;;;;;;;10.15;7.35;;;;;;;17.03;26.46;93756.97;4939513;28;20081;-89
2022/03/12 07:58:30;;;;;;;9.88;5.32;;;;;;;17.06;26.38;93763.44;4938756;28;20506;-89
2022/03/12 08:00:57;;;;;;;8.07;5.50;;;;;;;17.06;26.47;93752.50;4924897;28;20057;-88
2022/03/12 08:03:23;;;;;;;10.65;7.15;;;;;;;17.02;26.72;93749.25;4924513;28;20114;-89
2022/03/12 08:05:50;;;;;;;8.88;5.55;;;;;;;17.03;26.20;93754.22;4925298;28;20035;-89
2022/03/12 08:08:17;;;;;;;7.45;5.25;;;;;;;17.01;26.49;93759.44;4942098;28;20042;-87
2022/03/12 08:13:26;;;;;;;8.30;2.78;;;;;;;16.82;20.47;93760.38;4946874;28;20105;-90
2022/03/12 08:15:52;;;;;;;8.65;2.70;;;;;;;16.75;19.86;93767.78;4946357;28;20034;-88
2022/03/12 08:18:17;;;;;;;9.27;2.78;;;;;;;16.71;18.85;93761.06;4946094;28;20031;-87
2022/03/12 08:20:44;;;;;;;2.92;2.50;;;;;;;16.61;18.09;93757.06;4943762;28;20402;-88
2022/03/12 08:23:19;;;;;;;7.68;3.35;;;;;;;16.60;17.77;93766.47;4927409;28;20895;-89
2022/03/12 08:25:45;;;;;;;19.30;3.53;;;;;;;16.53;16.79;93754.03;4984661;28;20055;-87
2022/03/12 08:28:11;;;;;;;16.23;9.57;;;;;;;16.44;18.89;93762.44;4931789;28;20027;-93
2022/03/12 08:30:37;;;;;;;19.20;11.30;;;;;;;16.49;19.49;93761.69;4931959;28;20193;-90
2022/03/12 08:33:03;;;;;;;13.02;7.38;;;;;;;16.51;19.77;93764.69;4946833;28;20046;-88
2022/03/12 08:35:28;;;;;;;15.82;6.80;;;;;;;16.51;20.32;93758.47;4943709;28;20069;-89
2022/03/12 08:37:54;;;;;;;8.60;5.00;;;;;;;16.55;19.46;93762.47;4926842;28;20035;-89
2022/03/12 08:40:28;;;;;;;13.98;5.38;;;;;;;16.62;19.84;93748.38;4945696;28;20046;-89
2022/03/12 08:42:54;;;;;;;11.00;4.93;;;;;;;16.59;19.56;93756.78;4961323;28;20066;-89
2022/03/12 08:45:19;;;;;;;7.53;4.65;;;;;;;16.63;20.41;93769.00;4943069;29;20043;-89
2022/03/12 08:47:45;;;;;;;9.20;4.22;;;;;;;16.65;20.42;93752.88;4926715;29;20051;-89
2022/03/12 08:50:11;;;;;;;10.52;3.92;;;;;;;16.66;21.02;93761.81;4923465;29;20051;-89
2022/03/12 08:52:37;;;;;;;18.27;5.22;;;;;;;16.67;21.69;93758.56;4908103;29;20035;-89
2022/03/12 08:55:04;;;;;;;13.75;5.10;;;;;;;16.68;22.13;93764.78;4909502;29;20042;-89
2022/03/12 08:57:29;;;;;;;9.80;4.82;;;;;;;16.72;22.26;93776.97;4906998;29;20066;-89
2022/03/12 08:59:55;;;;;;;17.08;5.53;;;;;;;16.73;22.32;93758.59;4908125;29;20098;-89
2022/03/12 09:02:23;;;;;;;13.32;4.97;;;;;;;16.74;22.04;93760.09;4920915;29;20035;-89
2022/03/12 09:04:48;;;;;;;16.15;4.97;;;;;;;16.71;22.49;93753.63;4922496;29;20046;-89
2022/03/12 09:07:14;;;;;;;16.05;4.97;;;;;;;16.71;22.40;93761.06;4920809;29;20039;-89
2022/03/12 09:09:39;;;;;;;10.45;5.00;;;;;;;16.72;21.97;93751.66;4938108;29;20035;-89
2022/03/12 09:12:05;;;;;;;22.05;6.68;;;;;;;16.72;22.07;93757.84;4920912;29;20039;-89
2022/03/12 09:14:34;;;;;;;20.33;7.20;;;;;;;16.76;21.87;93761.09;4921791;29;20038;-89
2022/03/12 09:17:01;;;;;;;12.95;5.82;;;;;;;16.75;21.93;93751.41;4922151;29;20039;-89
2022/03/12 09:19:26;;;;;;;11.40;6.32;;;;;;;16.71;21.68;93766.53;4907155;29;20405;-89
2022/03/12 09:21:52;;;;;;;13.70;5.20;;;;;;;16.72;21.49;93774.22;4925166;29;20030;-90
2022/03/12 09:24:17;;;;;;;26.38;6.25;;;;;;;16.74;21.78;93754.63;4940956;29;20043;-89
2022/03/12 09:26:43;;;;;;;329.63;33.15;;;;;;;16.75;21.53;93767.78;4942521;29;20098;-89
2022/03/12 09:29:08;;;;;;;128.07;15.88;;;;;;;16.72;21.88;93779.69;4909787;29;20034;-89
2022/03/12 09:31:34;;;;;;;90.70;13.40;;;;;;;16.73;21.81;93766.78;4926227;28;20367;-89
2022/03/12 09:34:02;;;;;;;74.75;11.85;;;;;;;16.75;21.35;93753.41;4927440;28;20049;-90
2022/03/12 09:36:28;;;;;;;61.05;9.23;;;;;;;16.76;21.44;93768.53;4933284;23;20356;-89
2022/03/12 09:38:53;;;;;;;58.47;8.13;;;;;;;16.74;21.13;93758.09;4936251;29;20028;-89
2022/03/12 09:41:18;;;;;;;28.77;6.60;;;;;;;16.75;21.67;93748.69;4901808;29;20099;-89
2022/03/12 09:43:44;;;;;;;28.38;7.32;;;;;;;16.76;21.16;93763.09;4916953;29;20423;-89
2022/03/12 09:46:09;;;;;;;41.08;7.00;;;;;;;16.76;21.47;93766.56;4901590;29;20032;-89
2022/03/12 09:48:35;;;;;;;32.63;6.22;;;;;;;16.78;21.24;93755.91;4902721;29;20055;-89
2022/03/12 09:51:01;;;;;;;33.85;6.72;;;;;;;16.74;21.49;93758.09;4886948;29;20040;-90
2022/03/12 09:53:26;;;;;;;40.30;7.05;;;;;;;16.75;21.34;93747.94;4901296;29;20047;-89
2022/03/12 09:55:53;;;;;;;39.08;7.18;;;;;;;16.76;21.49;93749.44;4917578;29;20036;-89
2022/03/12 09:58:18;;;;;;;42.45;7.82;;;;;;;16.75;21.71;93756.88;4900431;29;20047;-90
2022/03/12 10:00:44;;;;;;;57.75;8.20;;;;;;;16.76;21.83;93765.81;4890243;29;20395;-90
2022/03/12 10:03:09;;;;;;;28.95;6.32;;;;;;;16.74;21.65;93749.91;4900574;29;20040;-90
2022/03/12 10:05:35;;;;;;;46.17;7.43;;;;;;;16.76;21.66;93744.72;4900556;29;20032;-90
2022/03/12 10:08:01;;;;;;;26.85;7.32;;;;;;;16.74;22.06;93746.44;4863712;29;20120;-90
2022/03/12 10:10:27;;;;;;;40.08;6.60;;;;;;;16.76;21.78;93743.97;4865427;29;20040;-90
2022/03/12 10:12:56;;;;;;;28.23;7.13;;;;;;;16.75;21.75;93745.22;4885211;23;20047;-90
2022/03/12 10:15:21;;;;;;;28.52;7.30;;;;;;;16.76;21.59;93752.16;4958339;28;20070;-90
2022/03/12 10:17:47;;;;;;;25.13;7.40;;;;;;;16.75;21.67;93740.50;4942220;28;20457;-89
2022/03/12 10:20:12;;;;;;;30.23;7.30;;;;;;;16.74;21.70;93741.72;4923876;28;20070;-89
2022/03/12 10:22:38;;;;;;;23.75;7.28;;;;;;;16.74;21.60;93738.25;4941560;28;20046;-90
2022/03/12 10:25:06;;;;;;;34.47;6.50;;;;;;;16.75;21.84;93734.28;4923121;28;20198;-89
2022/03/12 10:27:33;;;;;;;29.17;6.63;;;;;;;16.74;21.51;93730.81;4954906;28;20145;-90
2022/03/12 10:29:58;;;;;;;27.95;7.43;;;;;;;16.74;21.53;93730.81;4954505;28;20424;-90
2022/03/12 10:32:28;;;;;;;23.98;6.90;;;;;;;16.75;21.20;93723.38;4938145;28;20043;-90
2022/03/12 10:34:56;;;;;;;36.00;6.78;;;;;;;16.74;21.49;93730.06;4937920;28;20191;-90
2022/03/12 10:37:23;;;;;;;28.20;6.38;;;;;;;16.73;21.46;93721.13;4939156;28;20038;-90
2022/03/12 10:40:00;;;;;;;27.60;5.82;;;;;;;16.75;21.77;93720.63;4953038;29;20596;-90
2022/03/12 10:42:26;;;;;;;29.55;5.95;;;;;;;16.75;21.68;93723.38;4923425;29;20512;-89
2022/03/12 10:44:52;;;;;;;24.20;6.90;;;;;;;16.75;21.77;93705.00;4928675;28;20035;-89
2022/03/12 10:47:22;;;;;;;19.00;5.50;;;;;;;16.76;21.55;93725.59;4947399;28;20039;-90
2022/03/12 10:49:58;;;;;;;34.33;6.90;;;;;;;16.75;21.67;93718.66;4930599;28;20038;-90
2022/03/12 10:52:27;;;;;;;35.88;7.05;;;;;;;16.73;21.60;93726.59;4930496;28;20043;-91
2022/03/12 10:54:53;;;;;;;20.27;6.13;;;;;;;16.73;21.92;93715.66;4934994;28;20118;-90
2022/03/12 10:57:19;;;;;;;19.20;7.05;;;;;;;16.75;21.30;93707.00;4965107;28;20039;-89
2022/03/12 10:59:45;;;;;;;31.15;7.43;;;;;;;16.68;21.66;93697.28;4948942;28;20027;-91
2022/03/12 11:02:10;;;;;;;20.85;5.93;;;;;;;16.71;21.67;93704.50;4945330;28;20074;-92
2022/03/12 11:04:36;;;;;;;34.35;7.63;;;;;;;16.77;22.08;93707.25;4948159;28;20462;-90
2022/03/12 11:07:26;;;;;;;26.38;7.35;;;;;;;16.74;21.46;93716.41;4947857;28;20034;-89
2022/03/12 11:09:53;;;;;;;32.65;6.25;;;;;;;16.74;21.25;93711.69;4927708;28;20041;-89
2022/03/12 11:12:31;;;;;;;24.98;5.97;;;;;;;16.73;21.55;93704.75;4926762;28;20038;-89
2022/03/12 11:15:08;;;;;;;23.20;5.90;;;;;;;16.70;21.39;93713.91;4924512;29;20110;-89
2022/03/12 11:17:52;;;;;;;20.73;6.78;;;;;;;16.71;21.35;93703.75;4924197;29;20044;-90
2022/03/12 11:20:27;;;;;;;26.15;5.65;;;;;;;16.69;21.36;93709.69;4908673;29;20040;-90
2022/03/12 11:23:08;;;;;;;25.10;7.13;;;;;;;16.72;21.60;93700.53;4905480;29;20497;-89
2022/03/12 11:25:36;;;;;;;22.38;6.22;;;;;;;16.72;21.35;93683.41;4905464;29;20106;-89
2022/03/12 11:28:18;;;;;;;24.80;6.72;;;;;;;16.71;21.73;93699.03;4905322;29;20076;-89
2022/03/12 11:30:43;;;;;;;32.72;6.50;;;;;;;16.68;21.37;93689.09;4887133;29;20032;-89
2022/03/12 11:33:09;;;;;;;17.33;5.35;;;;;;;16.69;21.68;93687.84;4902498;29;20549;-90